Time;durP1;ratioP1;P1;durP2;ratioP2;P2;SDS_P1;SDS_P2;PMS_P1;PMS_P2;Temp;Humidity;BMP_temperature;BMP_pressure;BME280_temperature;BME280_humidity;BME280_pressure;Samples;Min_cycle;Max_cycle;Signal;HPM_P1;HPM_P2
2023/04/15 00:00:14;;;;;;;;;;;;;;;14.90;93.06;97993.53;4937884;28;20028;-45
2023/04/15 00:02:39;;;;;;;;;;;;;;;15.95;89.71;97953.53;4936629;28;20056;-46
2023/04/15 00:05:05;;;;;;;;;;;;;;;16.68;85.57;97913.59;4936945;28;19970;-45
2023/04/15 00:07:30;;;;;;;;;;;;;;;16.80;82.96;97893.69;4934696;28;19926;-46
2023/04/15 00:09:56;;;;;;;;;;;;;;;16.72;82.79;97902.84;4935890;28;20689;-46
2023/04/15 00:12:22;;;;;;;;;;;;;;;16.87;81.72;97887.88;4935653;28;19978;-46
2023/04/15 00:14:47;;;;;;;;;;;;;;;16.90;81.09;97889.41;4936784;28;20965;-45
2023/04/15 00:17:12;;;;;;;;;;;;;;;16.83;81.31;97893.44;4934526;28;19922;-46
2023/04/15 00:19:38;;;;;;;;;;;;;;;15.21;86.29;97948.19;4932963;28;20464;-46
2023/04/15 00:22:03;;;;;;;;;;;;;;;14.48;90.26;97967.66;4937071;28;21276;-45
2023/04/15 00:24:30;;;;;;;;;;;;;;;14.16;95.07;98009.41;4938080;28;20292;-46
2023/04/15 00:26:55;;;;;;;;;;;;;;;13.83;96.13;98001.94;4936498;28;20095;-45
2023/04/15 00:29:20;;;;;;;;;;;;;;;14.88;96.17;97985.00;4950140;28;19922;-45
2023/04/15 00:31:45;;;;;;;;;;;;;;;15.22;91.92;97965.44;4933247;28;20646;-46
2023/04/15 00:34:11;;;;;;;;;;;;;;;15.53;90.91;97956.41;4938599;28;20038;-45
2023/04/15 00:36:36;;;;;;;;;;;;;;;16.05;88.15;97931.16;4932523;28;20072;-45
2023/04/15 00:39:02;;;;;;;;;;;;;;;16.16;86.62;97907.84;4938452;28;19962;-44
2023/04/15 00:41:27;;;;;;;;;;;;;;;15.18;90.33;97949.25;4943602;28;19918;-45
2023/04/15 00:43:53;;;;;;;;;;;;;;;13.87;96.31;97997.44;4945797;28;20387;-46
2023/04/15 00:46:19;;;;;;;;;;;;;;;14.76;96.15;97974.50;4944647;28;20372;-45
2023/04/15 00:48:44;;;;;;;;;;;;;;;15.03;93.63;97961.50;4944774;28;20441;-45
2023/04/15 00:51:09;;;;;;;;;;;;;;;15.76;89.99;97934.06;4944242;28;19953;-45
2023/04/15 00:53:35;;;;;;;;;;;;;;;15.42;88.93;97928.59;4943927;28;19914;-46
2023/04/15 00:56:00;;;;;;;;;;;;;;;13.89;94.57;97987.78;4944520;28;19929;-45
2023/04/15 00:58:26;;;;;;;;;;;;;;;13.06;100.00;98032.34;4944817;28;19972;-45
2023/04/15 01:00:53;;;;;;;;;;;;;;;14.74;98.09;97989.34;4944606;28;19922;-45
2023/04/15 01:03:18;;;;;;;;;;;;;;;15.36;93.04;97952.34;4939768;28;19922;-46
2023/04/15 01:05:43;;;;;;;;;;;;;;;14.87;92.02;97947.03;4944506;28;19929;-47
2023/04/15 01:08:09;;;;;;;;;;;;;;;14.36;95.53;97978.81;4943148;28;19930;-46
2023/04/15 01:10:34;;;;;;;;;;;;;;;14.89;94.91;97961.56;4943988;28;20156;-47
2023/04/15 01:13:00;;;;;;;;;;;;;;;14.73;93.16;97950.53;4944994;28;20005;-47
2023/04/15 01:15:25;;;;;;;;;;;;;;;14.92;94.26;97951.00;4942670;28;19922;-47
2023/04/15 01:17:50;;;;;;;;;;;;;;;15.44;92.08;97936.25;4944258;28;19969;-47
2023/04/15 01:20:16;;;;;;;;;;;;;;;15.33;91.61;97931.00;4945423;28;19964;-47
2023/04/15 01:22:41;;;;;;;;;;;;;;;15.51;89.36;97914.16;4943563;28;20725;-46
2023/04/15 01:25:11;;;;;;;;;;;;;;;15.67;88.90;97911.31;4943197;28;20401;-46
2023/04/15 01:27:39;;;;;;;;;;;;;;;15.82;87.32;97899.03;4942525;28;19926;-47
2023/04/15 01:30:06;;;;;;;;;;;;;;;15.77;87.66;97906.34;4943058;28;20454;-47
2023/04/15 01:32:31;;;;;;;;;;;;;;;15.77;86.81;97899.38;4939719;28;20418;-46
2023/04/15 01:34:56;;;;;;;;;;;;;;;15.77;85.79;97889.00;4943055;28;19919;-48
2023/04/15 01:37:21;;;;;;;;;;;;;;;15.42;87.50;97910.44;4943158;28;19929;-47
2023/04/15 01:39:47;;;;;;;;;;;;;;;15.55;86.55;97896.59;4944631;28;19918;-46
2023/04/15 01:42:12;;;;;;;;;;;;;;;14.35;90.59;97946.91;4943420;28;19979;-46
2023/04/15 01:44:37;;;;;;;;;;;;;;;14.48;90.22;97941.75;4940868;28;19922;-47
2023/04/15 01:47:02;;;;;;;;;;;;;;;15.23;88.83;97913.44;4944267;28;19968;-46
2023/04/15 01:49:27;;;;;;;;;;;;;;;14.01;94.12;97968.94;4943767;28;19972;-46
2023/04/15 01:51:53;;;;;;;;;;;;;;;13.47;96.52;97995.50;4946346;28;20363;-47
2023/04/15 01:54:18;;;;;;;;;;;;;;;14.82;91.78;97939.56;4944337;28;19918;-47
2023/04/15 01:56:43;;;;;;;;;;;;;;;14.67;90.84;97930.25;4943052;28;20858;-47
2023/04/15 01:59:08;;;;;;;;;;;;;;;14.84;90.76;97932.53;4943492;28;20218;-46
2023/04/15 02:01:34;;;;;;;;;;;;;;;14.74;89.36;97926.31;4943445;28;19918;-46
2023/04/15 02:03:59;;;;;;;;;;;;;;;14.97;88.60;97911.81;4942840;28;19922;-47
2023/04/15 02:06:25;;;;;;;;;;;;;;;15.04;87.42;97910.47;4943667;28;19926;-46
2023/04/15 02:08:50;;;;;;;;;;;;;;;15.02;87.09;97913.16;4942990;28;19926;-47
2023/04/15 02:11:15;;;;;;;;;;;;;;;14.98;87.30;97927.25;4942395;28;20009;-46
2023/04/15 02:13:40;;;;;;;;;;;;;;;14.99;87.21;97926.31;4941934;28;19923;-46
2023/04/15 02:16:14;;;;;;;;;;;;;;;15.22;87.20;97922.16;4942252;28;20834;-46
2023/04/15 02:18:39;;;;;;;;;;;;;;;13.10;88.93;97973.56;4942298;28;19985;-44
2023/04/15 02:21:06;;;;;;;;;;;;;;;13.06;99.96;98034.09;4942817;28;19972;-46
2023/04/15 02:23:31;;;;;;;;;;;;;;;13.06;100.00;98031.50;4943507;28;19918;-47
2023/04/15 02:25:56;;;;;;;;;;;;;;;13.46;99.70;98019.72;4943043;28;19933;-46
2023/04/15 02:28:21;;;;;;;;;;;;;;;12.99;100.00;98033.59;4943866;28;19937;-46
2023/04/15 02:30:49;;;;;;;;;;;;;;;13.39;99.13;98019.22;4941363;28;20377;-47
2023/04/15 02:33:15;;;;;;;;;;;;;;;13.57;97.38;98006.09;4945780;28;19918;-46
2023/04/15 02:35:43;;;;;;;;;;;;;;;12.11;100.00;98059.13;4946360;28;20303;-47
2023/04/15 02:38:08;;;;;;;;;;;;;;;13.19;100.00;98053.16;4944619;28;19927;-46
2023/04/15 02:40:33;;;;;;;;;;;;;;;13.64;99.53;98024.69;4946764;28;19918;-46
2023/04/15 02:42:59;;;;;;;;;;;;;;;12.90;99.25;98032.38;4945379;28;20013;-47
2023/04/15 02:45:26;;;;;;;;;;;;;;;12.48;100.00;98057.13;4944877;28;19922;-47
2023/04/15 02:47:52;;;;;;;;;;;;;;;12.18;100.00;98074.25;4945992;28;19926;-46
2023/04/15 02:50:17;;;;;;;;;;;;;;;11.87;100.00;98097.34;4944747;28;20300;-46
2023/04/15 02:52:43;;;;;;;;;;;;;;;12.61;100.00;98077.91;4948255;28;20043;-46
2023/04/15 02:55:08;;;;;;;;;;;;;;;12.05;100.00;98085.25;4946269;28;20308;-46
2023/04/15 02:57:36;;;;;;;;;;;;;;;12.54;100.00;98081.75;4945341;28;19929;-46
2023/04/15 03:00:01;;;;;;;;;;;;;;;11.28;100.00;98093.44;4944754;28;19929;-46
2023/04/15 03:02:26;;;;;;;;;;;;;;;13.49;100.00;98034.22;4944820;28;19918;-46
2023/04/15 03:04:51;;;;;;;;;;;;;;;14.02;96.72;98002.47;4945371;28;19928;-46
2023/04/15 03:07:17;;;;;;;;;;;;;;;14.16;94.46;97988.69;4944976;28;19930;-47
2023/04/15 03:09:42;;;;;;;;;;;;;;;14.32;92.81;97982.53;4945026;28;20219;-46
2023/04/15 03:12:07;;;;;;;;;;;;;;;13.90;93.61;97989.47;4944637;28;20025;-47
2023/04/15 03:14:32;;;;;;;;;;;;;;;14.02;93.08;97986.09;4945104;28;19923;-46
2023/04/15 03:17:01;;;;;;;;;;;;;;;13.98;93.23;97988.06;4946847;28;19923;-46
2023/04/15 03:19:26;;;;;;;;;;;;;;;14.11;92.40;97990.72;4944925;28;19961;-46
2023/04/15 03:21:51;;;;;;;;;;;;;;;13.31;94.96;98020.59;4946045;28;19968;-44
2023/04/15 03:24:17;;;;;;;;;;;;;;;13.05;97.68;98035.03;4945747;28;20564;-46
2023/04/15 03:26:42;;;;;;;;;;;;;;;13.42;97.28;98030.31;4945601;28;20361;-46
2023/04/15 03:29:07;;;;;;;;;;;;;;;12.66;98.51;98051.88;4943040;28;19972;-46
2023/04/15 03:31:32;;;;;;;;;;;;;;;12.20;100.00;98088.78;4943581;28;19926;-46
2023/04/15 03:33:57;;;;;;;;;;;;;;;13.05;100.00;98058.28;4946060;28;19964;-46
2023/04/15 03:36:23;;;;;;;;;;;;;;;12.91;100.00;98064.25;4944467;28;19927;-47
2023/04/15 03:38:49;;;;;;;;;;;;;;;13.26;100.00;98061.38;4945711;28;19945;-46
2023/04/15 03:41:14;;;;;;;;;;;;;;;13.92;98.25;98016.09;4945822;28;19922;-47
2023/04/15 03:43:39;;;;;;;;;;;;;;;14.01;96.58;98015.53;4943917;28;19923;-46
2023/04/15 03:46:04;;;;;;;;;;;;;;;14.34;95.60;98001.38;4944675;28;20291;-46
2023/04/15 03:48:30;;;;;;;;;;;;;;;14.43;94.66;97995.63;4943483;28;20410;-47
2023/04/15 03:50:55;;;;;;;;;;;;;;;14.19;94.17;97998.03;4945899;28;19972;-47
2023/04/15 03:53:20;;;;;;;;;;;;;;;14.33;93.94;97997.16;4945326;28;19918;-47
2023/04/15 03:55:45;;;;;;;;;;;;;;;14.19;94.21;97996.25;4944231;28;19926;-46
2023/04/15 03:58:11;;;;;;;;;;;;;;;14.17;94.34;98011.06;4944714;28;20399;-46
2023/04/15 04:00:37;;;;;;;;;;;;;;;14.15;93.97;98001.72;4946475;28;20304;-46
2023/04/15 04:03:02;;;;;;;;;;;;;;;14.13;94.07;98004.41;4947169;28;20233;-46
2023/04/15 04:05:27;;;;;;;;;;;;;;;14.22;94.37;98013.34;4943233;28;19919;-46
2023/04/15 04:07:52;;;;;;;;;;;;;;;14.16;94.84;98017.16;4944958;28;19933;-46
2023/04/15 04:10:18;;;;;;;;;;;;;;;14.17;94.53;98011.06;4944710;28;19918;-46
2023/04/15 04:12:43;;;;;;;;;;;;;;;14.17;94.92;98016.22;4943528;28;20292;-46
2023/04/15 04:15:08;;;;;;;;;;;;;;;14.06;95.81;98030.78;4944241;28;19940;-46
2023/04/15 04:17:33;;;;;;;;;;;;;;;13.90;97.03;98033.47;4944502;28;19921;-45
2023/04/15 04:19:59;;;;;;;;;;;;;;;11.77;100.00;98103.03;4946589;28;19926;-46
2023/04/15 04:22:24;;;;;;;;;;;;;;;12.50;100.00;98096.63;4944100;28;19918;-46
2023/04/15 04:24:49;;;;;;;;;;;;;;;13.56;100.00;98077.72;4936532;28;19962;-45
2023/04/15 04:27:15;;;;;;;;;;;;;;;14.07;100.00;98048.81;4944411;28;19927;-46
2023/04/15 04:29:40;;;;;;;;;;;;;;;13.98;99.58;98046.75;4945034;28;20029;-46
2023/04/15 04:32:05;;;;;;;;;;;;;;;13.87;100.00;98055.19;4944805;28;20464;-45
2023/04/15 04:34:31;;;;;;;;;;;;;;;13.18;100.00;98077.31;4944588;28;20174;-46
2023/04/15 04:36:56;;;;;;;;;;;;;;;12.55;100.00;98107.53;4944712;28;19957;-46
2023/04/15 04:39:21;;;;;;;;;;;;;;;13.60;100.00;98099.06;4942784;28;20130;-45
2023/04/15 04:41:47;;;;;;;;;;;;;;;13.83;100.00;98082.19;4945832;28;19958;-47
2023/04/15 04:44:12;;;;;;;;;;;;;;;13.89;100.00;98068.03;4945882;28;20315;-45
2023/04/15 04:46:37;;;;;;;;;;;;;;;12.85;100.00;98111.91;4943884;28;20496;-46
2023/04/15 04:49:02;;;;;;;;;;;;;;;13.57;100.00;98096.66;4944849;28;20327;-46
2023/04/15 04:51:27;;;;;;;;;;;;;;;14.16;100.00;98076.72;4943628;28;20606;-45
2023/04/15 04:53:53;;;;;;;;;;;;;;;13.86;100.00;98088.94;4944227;28;19922;-46
2023/04/15 04:56:18;;;;;;;;;;;;;;;14.08;100.00;98078.94;4942419;28;19965;-46
2023/04/15 04:58:43;;;;;;;;;;;;;;;13.62;100.00;98091.22;4944753;28;19922;-45
2023/04/15 05:01:08;;;;;;;;;;;;;;;13.59;100.00;98110.31;4944019;28;19961;-46
2023/04/15 05:03:34;;;;;;;;;;;;;;;13.95;100.00;98093.53;4944439;28;20017;-46
2023/04/15 05:05:59;;;;;;;;;;;;;;;14.04;100.00;98111.13;4943943;28;19949;-46
2023/04/15 05:08:25;;;;;;;;;;;;;;;14.15;100.00;98100.94;4943727;28;19922;-45
2023/04/15 05:10:50;;;;;;;;;;;;;;;12.66;100.00;98131.94;4942513;28;20464;-45
2023/04/15 05:13:15;;;;;;;;;;;;;;;13.91;100.00;98133.47;4944006;28;19922;-45
2023/04/15 05:15:42;;;;;;;;;;;;;;;14.16;100.00;98112.97;4944391;28;19922;-46
2023/04/15 05:18:07;;;;;;;;;;;;;;;13.85;100.00;98124.34;4945038;28;20044;-45
2023/04/15 05:20:32;;;;;;;;;;;;;;;13.16;100.00;98161.91;4941560;28;20009;-46
2023/04/15 05:22:57;;;;;;;;;;;;;;;12.32;100.00;98193.13;4941875;28;20044;-46
2023/04/15 05:25:22;;;;;;;;;;;;;;;12.35;100.00;98206.69;4944065;28;20083;-46
2023/04/15 05:27:48;;;;;;;;;;;;;;;13.75;100.00;98170.63;4943866;28;19927;-45
2023/04/15 05:30:13;;;;;;;;;;;;;;;13.60;100.00;98171.50;4943339;28;19926;-45
2023/04/15 05:32:39;;;;;;;;;;;;;;;12.91;100.00;98183.13;4941375;28;19922;-46
2023/04/15 05:35:04;;;;;;;;;;;;;;;12.50;100.00;98205.06;4943163;28;20073;-46
2023/04/15 05:37:29;;;;;;;;;;;;;;;13.29;100.00;98199.09;4943590;28;20161;-46
2023/04/15 05:39:55;;;;;;;;;;;;;;;13.49;100.00;98179.06;4943588;28;19922;-46
2023/04/15 05:42:20;;;;;;;;;;;;;;;13.58;100.00;98184.53;4941491;28;19923;-45
2023/04/15 05:44:46;;;;;;;;;;;;;;;13.56;100.00;98188.13;4942727;28;19922;-46
2023/04/15 05:47:11;;;;;;;;;;;;;;;14.16;100.00;98176.84;4943126;28;20436;-46
2023/04/15 05:49:36;;;;;;;;;;;;;;;14.24;100.00;98151.34;4943206;28;20068;-45
2023/04/15 05:52:02;;;;;;;;;;;;;;;15.01;100.00;98134.47;4943347;28;19923;-45
2023/04/15 05:54:27;;;;;;;;;;;;;;;14.01;100.00;98163.09;4943455;28;20449;-46
2023/04/15 05:56:52;;;;;;;;;;;;;;;14.13;100.00;98166.69;4939671;28;19954;-45
2023/04/15 05:59:17;;;;;;;;;;;;;;;14.43;100.00;98176.94;4941169;28;19973;-48
2023/04/15 06:01:43;;;;;;;;;;;;;;;14.44;100.00;98163.09;4942946;28;20341;-45
2023/04/15 06:04:10;;;;;;;;;;;;;;;13.10;100.00;98209.59;4944308;28;20111;-45
2023/04/15 06:06:36;;;;;;;;;;;;;;;13.15;100.00;98230.03;4945621;28;20019;-45
2023/04/15 06:09:01;;;;;;;;;;;;;;;13.59;100.00;98216.41;4938129;28;19962;-45
2023/04/15 06:11:26;;;;;;;;;;;;;;;14.66;100.00;98172.97;4947100;28;20898;-45
2023/04/15 06:13:51;;;;;;;;;;;;;;;14.89;100.00;98178.50;4948757;28;19922;-45
2023/04/15 06:16:17;;;;;;;;;;;;;;;14.97;100.00;98161.53;4946305;28;19937;-45
2023/04/15 06:18:42;;;;;;;;;;;;;;;14.38;100.00;98190.19;4944788;28;20074;-45
2023/04/15 06:21:07;;;;;;;;;;;;;;;14.99;100.00;98182.19;4945516;28;19933;-45
2023/04/15 06:23:35;;;;;;;;;;;;;;;15.35;100.00;98154.78;4948164;28;19922;-45
2023/04/15 06:26:00;;;;;;;;;;;;;;;14.42;100.00;98181.31;4945598;28;19927;-46
2023/04/15 06:28:26;;;;;;;;;;;;;;;13.97;100.00;98197.84;4946955;28;19922;-44
2023/04/15 06:30:51;;;;;;;;;;;;;;;12.96;100.00;98254.31;4945279;28;20428;-45
2023/04/15 06:33:17;;;;;;;;;;;;;;;13.46;100.00;98267.19;4946578;28;20937;-45
2023/04/15 06:35:42;;;;;;;;;;;;;;;12.82;100.00;98281.78;4946427;28;19918;-45
2023/04/15 06:38:07;;;;;;;;;;;;;;;12.20;100.00;98294.41;4946672;28;19933;-45
2023/04/15 06:40:32;;;;;;;;;;;;;;;13.85;100.00;98260.69;4946316;28;19929;-45
2023/04/15 06:42:58;;;;;;;;;;;;;;;13.74;100.00;98253.53;4946524;28;19929;-45
2023/04/15 06:45:23;;;;;;;;;;;;;;;13.43;100.00;98264.75;4945510;28;19965;-45
2023/04/15 06:47:48;;;;;;;;;;;;;;;12.54;100.00;98290.97;4945720;28;20132;-46
2023/04/15 06:50:13;;;;;;;;;;;;;;;11.84;100.00;98321.94;4947847;28;19979;-45
2023/04/15 06:52:39;;;;;;;;;;;;;;;12.19;100.00;98328.91;4945819;28;19922;-45
2023/04/15 06:55:04;;;;;;;;;;;;;;;10.81;100.00;98342.09;4949855;28;19954;-45
2023/04/15 06:57:30;;;;;;;;;;;;;;;11.64;100.00;98342.69;4945947;28;19922;-45
2023/04/15 06:59:55;;;;;;;;;;;;;;;11.69;100.00;98341.53;4945706;28;19944;-45
2023/04/15 07:02:20;;;;;;;;;;;;;;;11.67;100.00;98361.41;4946802;28;19922;-45
2023/04/15 07:04:46;;;;;;;;;;;;;;;11.16;100.00;98373.19;4945690;28;19965;-45
2023/04/15 07:07:18;;;;;;;;;;;;;;;11.48;100.00;98383.81;4946723;28;19922;-46
2023/04/15 07:09:44;;;;;;;;;;;;;;;11.71;100.00;98373.25;4934209;28;19922;-45
2023/04/15 07:12:10;;;;;;;;;;;;;;;11.47;100.00;98397.59;4946834;28;19919;-45
2023/04/15 07:14:35;;;;;;;;;;;;;;;10.85;100.00;98423.47;4945914;28;20276;-44
2023/04/15 07:17:02;;;;;;;;;;;;;;;10.97;100.00;98465.94;4945117;28;20235;-45
2023/04/15 07:19:27;;;;;;;;;;;;;;;11.75;100.00;98469.41;4945372;28;20014;-45
2023/04/15 07:21:52;;;;;;;;;;;;;;;11.94;100.00;98497.81;4945477;28;19969;-46
2023/04/15 07:24:19;;;;;;;;;;;;;;;11.52;100.00;98509.97;4940165;28;19945;-45
2023/04/15 07:26:44;;;;;;;;;;;;;;;11.55;100.00;98521.88;4944581;28;20153;-45
2023/04/15 07:29:10;;;;;;;;;;;;;;;11.54;100.00;98533.09;4945922;28;19926;-45
2023/04/15 07:31:35;;;;;;;;;;;;;;;11.25;100.00;98542.91;4944648;28;19929;-45
2023/04/15 07:34:01;;;;;;;;;;;;;;;10.92;100.00;98570.06;4946584;28;19944;-45
2023/04/15 07:36:27;;;;;;;;;;;;;;;10.75;100.00;98594.75;4948610;28;19920;-45
2023/04/15 07:38:54;;;;;;;;;;;;;;;10.92;100.00;98649.94;4945729;28;20019;-45
2023/04/15 07:41:19;;;;;;;;;;;;;;;12.09;100.00;98695.88;4944454;28;19918;-45
2023/04/15 07:43:45;;;;;;;;;;;;;;;11.72;100.00;98676.75;4945833;28;19922;-45
2023/04/15 07:46:10;;;;;;;;;;;;;;;11.67;100.00;98673.50;4946066;28;19945;-45
2023/04/15 07:48:35;;;;;;;;;;;;;;;11.67;100.00;98689.00;4945829;28;20025;-45
2023/04/15 07:51:01;;;;;;;;;;;;;;;11.41;100.00;98664.28;4949646;28;19924;-44
2023/04/15 07:53:26;;;;;;;;;;;;;;;11.96;100.00;98693.88;4943670;28;19948;-45
2023/04/15 07:55:52;;;;;;;;;;;;;;;12.40;100.00;98673.03;4944132;28;19918;-45
2023/04/15 07:58:17;;;;;;;;;;;;;;;11.89;100.00;98641.69;4944182;28;19926;-45
2023/04/15 08:00:42;;;;;;;;;;;;;;;12.69;100.00;98643.28;4948434;28;19922;-45
2023/04/15 08:03:07;;;;;;;;;;;;;;;11.94;100.00;98598.44;4952016;28;19930;-46
2023/04/15 08:05:33;;;;;;;;;;;;;;;12.43;100.00;98591.09;4947437;28;19928;-45
2023/04/15 08:07:58;;;;;;;;;;;;;;;11.61;100.00;98575.78;4947628;28;19957;-46
2023/04/15 08:10:24;;;;;;;;;;;;;;;11.78;100.00;98611.16;4949506;28;19970;-45
2023/04/15 08:12:49;;;;;;;;;;;;;;;11.53;100.00;98611.34;4946119;28;19948;-46
2023/04/15 08:15:15;;;;;;;;;;;;;;;13.10;100.00;98606.91;4947247;28;20410;-46
2023/04/15 08:17:40;;;;;;;;;;;;;;;11.13;100.00;98570.94;4950733;28;19918;-46
2023/04/15 08:20:06;;;;;;;;;;;;;;;12.03;100.00;98612.69;4946947;28;19919;-45
2023/04/15 08:22:31;;;;;;;;;;;;;;;11.29;100.00;98601.19;4950313;28;20294;-46
2023/04/15 08:24:56;;;;;;;;;;;;;;;11.76;100.00;98656.81;4948805;28;20671;-46
2023/04/15 08:27:22;;;;;;;;;;;;;;;11.51;100.00;98646.69;4950689;28;19923;-46
2023/04/15 08:29:47;;;;;;;;;;;;;;;12.00;100.00;98670.44;4947695;28;20398;-46
2023/04/15 08:32:12;;;;;;;;;;;;;;;11.85;100.00;98666.75;4949571;28;20351;-46
2023/04/15 08:34:37;;;;;;;;;;;;;;;12.45;100.00;98630.59;4946324;28;20539;-46
2023/04/15 08:37:03;;;;;;;;;;;;;;;12.03;100.00;98607.53;4946926;28;21188;-46
2023/04/15 08:39:28;;;;;;;;;;;;;;;11.61;100.00;98648.00;4944425;28;20390;-46
2023/04/15 08:42:00;;;;;;;;;;;;;;;11.30;100.00;98669.88;4945179;28;20455;-46
2023/04/15 08:44:25;;;;;;;;;;;;;;;11.81;100.00;98696.16;4945189;28;20277;-46
2023/04/15 08:46:51;;;;;;;;;;;;;;;11.98;100.00;98710.97;4943318;28;19918;-46
2023/04/15 08:49:16;;;;;;;;;;;;;;;11.18;100.00;98708.19;4944821;28;20017;-45
2023/04/15 08:51:41;;;;;;;;;;;;;;;11.95;100.00;98744.66;4945446;28;19967;-46
2023/04/15 08:54:10;;;;;;;;;;;;;;;11.87;100.00;98757.00;4941667;28;19926;-46
2023/04/15 08:56:35;;;;;;;;;;;;;;;11.15;100.00;98758.09;4947081;28;19923;-45
2023/04/15 08:59:01;;;;;;;;;;;;;;;11.00;100.00;98781.88;4946569;28;19918;-46
2023/04/15 09:01:26;;;;;;;;;;;;;;;11.33;100.00;98807.28;4946457;28;19979;-46
2023/04/15 09:03:53;;;;;;;;;;;;;;;11.19;100.00;98820.69;4944651;28;19928;-45
2023/04/15 09:06:19;;;;;;;;;;;;;;;11.02;100.00;98831.63;4943954;28;19928;-45
2023/04/15 09:08:44;;;;;;;;;;;;;;;11.57;100.00;98852.75;4945040;28;19927;-45
2023/04/15 09:11:10;;;;;;;;;;;;;;;11.56;100.00;98825.28;4944654;28;19952;-45
2023/04/15 09:13:35;;;;;;;;;;;;;;;11.37;100.00;98842.38;4943142;28;19921;-46
2023/04/15 09:16:02;;;;;;;;;;;;;;;11.16;100.00;98862.06;4943646;28;19944;-45
2023/04/15 09:18:31;;;;;;;;;;;;;;;11.16;100.00;98888.66;4943270;28;20185;-46
2023/04/15 09:21:04;;;;;;;;;;;;;;;11.43;100.00;98916.91;4943248;28;19940;-45
2023/04/15 09:23:30;;;;;;;;;;;;;;;11.25;100.00;98933.91;4946958;28;19926;-44
2023/04/15 09:25:55;;;;;;;;;;;;;;;11.39;100.00;98941.97;4946890;28;19933;-44
2023/04/15 09:28:25;;;;;;;;;;;;;;;11.28;100.00;98955.22;4944779;28;20050;-44
2023/04/15 09:30:51;;;;;;;;;;;;;;;11.60;100.00;98955.81;4945315;28;19929;-44
2023/04/15 09:33:16;;;;;;;;;;;;;;;11.23;100.00;98966.63;4943823;28;19914;-44
2023/04/15 09:35:41;;;;;;;;;;;;;;;11.43;100.00;99010.59;4944171;28;19919;-44
2023/04/15 09:38:08;;;;;;;;;;;;;;;11.06;100.00;99023.88;4942555;28;19987;-45
2023/04/15 09:40:34;;;;;;;;;;;;;;;10.70;100.00;99049.97;4944143;28;19933;-44
2023/04/15 09:43:00;;;;;;;;;;;;;;;11.07;100.00;99105.47;4943597;28;20321;-44
2023/04/15 09:45:26;;;;;;;;;;;;;;;10.97;100.00;99114.38;4944955;28;20830;-45
2023/04/15 09:47:51;;;;;;;;;;;;;;;10.43;100.00;99124.59;4944352;28;20405;-44
2023/04/15 09:50:17;;;;;;;;;;;;;;;11.36;100.00;99192.19;4945499;28;20019;-44
2023/04/15 09:52:43;;;;;;;;;;;;;;;10.80;100.00;99211.06;4943977;28;20332;-44
2023/04/15 09:55:08;;;;;;;;;;;;;;;10.91;100.00;99269.19;4944951;28;20041;-45
2023/04/15 09:57:35;;;;;;;;;;;;;;;10.73;100.00;99286.84;4943736;28;19953;-46
2023/04/15 10:00:00;;;;;;;;;;;;;;;11.04;100.00;99327.22;4943430;28;20579;-46
2023/04/15 10:02:26;;;;;;;;;;;;;;;10.61;100.00;99338.72;4947801;28;19933;-45
2023/04/15 10:04:51;;;;;;;;;;;;;;;10.88;100.00;99388.66;4946930;28;19952;-44
2023/04/15 10:07:19;;;;;;;;;;;;;;;11.49;100.00;99424.72;4945880;28;19933;-44
2023/04/15 10:09:45;;;;;;;;;;;;;;;10.95;100.00;99409.91;4947948;28;19923;-45
2023/04/15 10:12:10;;;;;;;;;;;;;;;10.68;100.00;99438.13;4946250;28;20869;-44
2023/04/15 10:14:37;;;;;;;;;;;;;;;10.00;100.00;99447.41;4945392;28;19927;-43
2023/04/15 10:17:02;;;;;;;;;;;;;;;10.14;100.00;99497.72;4944850;28;19948;-43
2023/04/15 10:19:29;;;;;;;;;;;;;;;10.02;100.00;99527.16;4944996;28;19927;-44
2023/04/15 10:21:54;;;;;;;;;;;;;;;10.53;100.00;99582.69;4946387;28;19922;-44
2023/04/15 10:24:19;;;;;;;;;;;;;;;10.76;100.00;99621.66;4944704;28;20393;-44
2023/04/15 10:26:44;;;;;;;;;;;;;;;10.08;100.00;99611.06;4946220;28;19922;-44
2023/04/15 10:29:11;;;;;;;;;;;;;;;11.40;100.00;99664.84;4945558;28;19930;-44
2023/04/15 10:31:37;;;;;;;;;;;;;;;10.43;100.00;99602.66;4945319;28;19930;-44
2023/04/15 10:34:05;;;;;;;;;;;;;;;10.96;100.00;99651.28;4946764;28;19922;-44
2023/04/15 10:36:30;;;;;;;;;;;;;;;11.29;100.00;99655.66;4939025;28;19922;-44
2023/04/15 10:38:55;;;;;;;;;;;;;;;11.08;100.00;99638.09;4944461;28;19929;-43
2023/04/15 10:41:21;;;;;;;;;;;;;;;11.17;100.00;99668.81;4941678;28;19919;-43
2023/04/15 10:43:50;;;;;;;;;;;;;;;10.79;100.00;99664.56;4946410;28;19969;-43
2023/04/15 10:46:39;;;;;;;;;;;;;;;10.61;100.00;99678.69;4944274;28;19926;-43
2023/04/15 10:49:16;;;;;;;;;;;;;;;10.14;100.00;99703.63;4952686;28;19957;-43
2023/04/15 10:51:45;;;;;;;;;;;;;;;10.65;100.00;99752.41;4942401;28;19929;-43
2023/04/15 10:54:14;;;;;;;;;;;;;;;11.13;100.00;99785.81;4947192;28;19918;-42
2023/04/15 10:56:51;;;;;;;;;;;;;;;11.00;100.00;99820.44;4950189;28;19957;-43
2023/04/15 10:59:16;;;;;;;;;;;;;;;10.96;100.00;99798.19;4948474;28;19914;-43
2023/04/15 11:01:58;;;;;;;;;;;;;;;10.71;100.00;99816.72;4949444;28;20539;-43
2023/04/15 11:04:42;;;;;;;;;;;;;;;10.64;100.00;99821.13;4948259;28;19926;-43
2023/04/15 11:07:08;;;;;;;;;;;;;;;10.74;100.00;99852.75;4949507;28;20349;-43
2023/04/15 11:09:33;;;;;;;;;;;;;;;10.89;100.00;99880.75;4950306;28;19922;-43
2023/04/15 11:12:05;;;;;;;;;;;;;;;11.09;100.00;99906.16;4947934;28;19970;-43
2023/04/15 11:14:31;;;;;;;;;;;;;;;10.54;100.00;99894.31;4948819;28;20490;-43
2023/04/15 11:16:57;;;;;;;;;;;;;;;10.84;100.00;99936.69;4949413;28;19926;-43
2023/04/15 11:19:22;;;;;;;;;;;;;;;11.00;100.00;99939.00;4948555;28;19918;-43
2023/04/15 11:21:47;;;;;;;;;;;;;;;10.32;100.00;99919.56;4948942;28;19929;-43
2023/04/15 11:24:25;;;;;;;;;;;;;;;10.79;100.00;99971.16;4948721;28;19922;-43
2023/04/15 11:26:50;;;;;;;;;;;;;;;10.51;100.00;99973.34;4949398;28;19951;-43
2023/04/15 11:29:18;;;;;;;;;;;;;;;10.93;96.41;100005.28;4986005;28;20457;-43
2023/04/15 11:31:48;;;;;;;;;;;;;;;10.97;99.53;100011.22;4947343;28;20409;-43
2023/04/15 11:34:13;;;;;;;;;;;;;;;10.81;100.00;100011.50;4948421;28;20025;-44
2023/04/15 11:36:39;;;;;;;;;;;;;;;10.51;97.72;100015.38;4947907;28;19921;-44
2023/04/15 11:39:06;;;;;;;;;;;;;;;11.01;92.93;100060.09;4947103;28;20036;-44
2023/04/15 11:41:31;;;;;;;;;;;;;;;11.13;94.37;100074.53;4949239;28;19926;-44
2023/04/15 11:43:56;;;;;;;;;;;;;;;10.80;93.44;100066.47;4948080;28;20000;-44
2023/04/15 11:46:27;;;;;;;;;;;;;;;10.70;90.38;100082.94;4948595;28;19918;-44
2023/04/15 11:48:52;;;;;;;;;;;;;;;10.76;88.27;100098.28;4947557;28;19933;-44
2023/04/15 11:51:20;;;;;;;;;;;;;;;10.85;89.73;100105.88;4947303;28;19926;-44
2023/04/15 11:53:47;;;;;;;;;;;;;;;11.35;88.91;100131.72;4948389;28;20423;-43
2023/04/15 11:56:16;;;;;;;;;;;;;;;11.00;89.56;100120.28;4947460;28;20268;-43
2023/04/15 11:58:42;;;;;;;;;;;;;;;10.52;86.24;100122.69;4947414;28;20406;-43
2023/04/15 12:01:07;;;;;;;;;;;;;;;10.63;84.04;100148.31;4947943;28;19938;-43
2023/04/15 12:03:39;;;;;;;;;;;;;;;10.74;79.45;100177.38;4949542;28;20378;-43
2023/04/15 12:06:18;;;;;;;;;;;;;;;10.73;80.02;100193.69;4947601;28;20341;-43
2023/04/15 12:08:47;;;;;;;;;;;;;;;10.91;77.04;100223.50;4947617;28;19979;-43
2023/04/15 12:11:12;;;;;;;;;;;;;;;10.66;74.16;100225.56;4944394;28;19992;-43
2023/04/15 12:13:37;;;;;;;;;;;;;;;11.08;71.55;100273.13;4948480;28;20553;-43
2023/04/15 12:16:03;;;;;;;;;;;;;;;10.68;73.23;100262.47;4946419;28;20834;-43
2023/04/15 12:18:28;;;;;;;;;;;;;;;10.75;72.44;100283.84;4948203;28;20414;-44
2023/04/15 12:20:53;;;;;;;;;;;;;;;11.52;69.97;100327.53;4948016;28;19923;-43
2023/04/15 12:23:19;;;;;;;;;;;;;;;11.14;76.23;100297.94;4947774;28;19918;-43
2023/04/15 12:25:50;;;;;;;;;;;;;;;11.03;75.10;100299.81;4947576;28;19922;-44
2023/04/15 12:28:16;;;;;;;;;;;;;;;10.94;75.85;100295.63;4944468;28;19969;-43
2023/04/15 12:30:48;;;;;;;;;;;;;;;10.97;73.52;100315.34;4948389;28;19965;-44
2023/04/15 12:33:14;;;;;;;;;;;;;;;11.00;72.55;100331.66;4950945;28;19922;-43